createdAt,value
2019-02-08T00:01:50.246Z,98.24
2019-02-08T00:04:17.088Z,97.02
2019-02-08T00:06:43.911Z,97.45
2019-02-08T00:09:10.767Z,97.74
2019-02-08T00:11:37.614Z,98.37
2019-02-08T00:14:04.450Z,98.27
2019-02-08T00:16:31.304Z,97.53
2019-02-08T00:18:58.166Z,97.98
2019-02-08T00:21:24.994Z,97.58
2019-02-08T00:23:51.817Z,98.12
2019-02-08T00:26:18.678Z,97.81
2019-02-08T00:28:45.523Z,97.65
2019-02-08T00:31:12.363Z,97.12
2019-02-08T00:33:39.198Z,97.26
2019-02-08T00:36:06.050Z,97.52
2019-02-08T00:38:32.870Z,96.44
2019-02-08T00:40:59.719Z,96.71
2019-02-08T00:43:26.556Z,97.50
2019-02-08T00:45:53.440Z,97.73
2019-02-08T00:48:20.286Z,96.88
2019-02-08T00:50:47.145Z,97.28
2019-02-08T00:53:13.978Z,97.40
2019-02-08T00:55:40.851Z,97.65
2019-02-08T00:58:07.686Z,97.74
2019-02-08T01:00:34.541Z,98.20
2019-02-08T01:03:01.383Z,98.32
2019-02-08T01:05:28.277Z,98.18
2019-02-08T01:07:55.110Z,98.38
2019-02-08T01:10:24.754Z,98.85
2019-02-08T01:12:51.630Z,99.19
2019-02-08T01:15:18.817Z,99.17
2019-02-08T01:17:45.644Z,99.12
2019-02-08T01:20:14.332Z,99.60
2019-02-08T01:22:41.162Z,99.97
2019-02-08T01:25:10.375Z,100.00
2019-02-08T01:27:37.213Z,100.00
2019-02-08T01:30:06.098Z,100.00
2019-02-08T01:32:32.943Z,100.00
2019-02-08T01:34:59.782Z,100.00
2019-02-08T01:37:26.623Z,100.00
2019-02-08T01:39:53.442Z,100.00
2019-02-08T01:42:20.298Z,100.00
2019-02-08T01:44:47.137Z,100.00
2019-02-08T01:47:13.994Z,100.00
2019-02-08T01:49:40.851Z,100.00
2019-02-08T01:52:07.778Z,100.00
2019-02-08T01:54:34.631Z,100.00
2019-02-08T01:57:01.486Z,100.00
2019-02-08T01:59:28.310Z,100.00
2019-02-08T02:01:55.153Z,100.00
2019-02-08T02:04:21.995Z,100.00
2019-02-08T02:06:48.845Z,100.00
2019-02-08T02:09:15.681Z,100.00
2019-02-08T02:11:42.526Z,100.00
2019-02-08T02:14:09.558Z,100.00
2019-02-08T02:16:36.424Z,100.00
2019-02-08T02:19:03.272Z,100.00
2019-02-08T02:21:30.118Z,100.00
2019-02-08T02:23:56.949Z,100.00
2019-02-08T02:26:23.798Z,100.00
2019-02-08T02:28:50.631Z,100.00
2019-02-08T02:31:17.478Z,100.00
2019-02-08T02:33:44.310Z,100.00
2019-02-08T02:36:11.153Z,100.00
2019-02-08T02:38:37.990Z,100.00
2019-02-08T02:41:04.854Z,100.00
2019-02-08T02:43:32.582Z,100.00
2019-02-08T02:45:58.538Z,100.00
2019-02-08T02:48:25.395Z,100.00
2019-02-08T02:50:52.246Z,100.00
2019-02-08T02:53:19.083Z,100.00
2019-02-08T02:55:45.937Z,100.00
2019-02-08T02:58:12.766Z,100.00
2019-02-08T03:00:42.459Z,100.00
2019-02-08T03:03:09.813Z,100.00
2019-02-08T03:05:36.657Z,100.00
2019-02-08T03:08:04.419Z,100.00
2019-02-08T03:10:31.250Z,100.00
2019-02-08T03:12:58.103Z,100.00
2019-02-08T03:15:24.929Z,100.00
2019-02-08T03:17:51.782Z,100.00
2019-02-08T03:20:18.622Z,100.00
2019-02-08T03:22:45.469Z,100.00
2019-02-08T03:25:14.665Z,100.00
2019-02-08T03:27:41.502Z,100.00
2019-02-08T03:30:10.679Z,100.00
2019-02-08T03:32:37.531Z,100.00
2019-02-08T03:35:05.680Z,100.00
2019-02-08T03:37:32.530Z,100.00
2019-02-08T03:39:59.385Z,100.00
2019-02-08T03:42:26.243Z,100.00
2019-02-08T03:44:53.083Z,100.00
2019-02-08T03:47:19.950Z,100.00
2019-02-08T03:49:46.790Z,100.00
2019-02-08T03:52:13.618Z,100.00
2019-02-08T03:54:40.442Z,99.96
2019-02-08T03:57:07.301Z,100.00
2019-02-08T03:59:34.130Z,100.00
2019-02-08T04:02:00.986Z,100.00
2019-02-08T04:04:27.844Z,100.00
2019-02-08T04:06:54.714Z,100.00
2019-02-08T04:09:21.549Z,100.00
2019-02-08T04:11:48.407Z,100.00
2019-02-08T04:14:15.262Z,100.00
2019-02-08T04:16:42.126Z,100.00
2019-02-08T04:19:08.962Z,100.00
2019-02-08T04:21:35.807Z,100.00
2019-02-08T04:24:02.629Z,100.00
2019-02-08T04:26:29.486Z,100.00
2019-02-08T04:28:56.318Z,100.00
2019-02-08T04:31:23.187Z,100.00
2019-02-08T04:33:50.004Z,100.00
2019-02-08T04:36:16.829Z,100.00
2019-02-08T04:38:43.686Z,100.00
2019-02-08T04:41:10.614Z,100.00
2019-02-08T04:43:37.466Z,100.00
2019-02-08T04:46:04.300Z,100.00
2019-02-08T04:48:31.155Z,100.00
2019-02-08T04:50:57.992Z,100.00
2019-02-08T04:53:24.838Z,100.00
2019-02-08T04:55:51.776Z,100.00
2019-02-08T04:58:18.622Z,100.00
2019-02-08T05:00:45.469Z,100.00
2019-02-08T05:03:12.374Z,100.00
2019-02-08T05:05:39.175Z,100.00
2019-02-08T05:08:06.122Z,100.00
2019-02-08T05:10:32.965Z,100.00
2019-02-08T05:12:59.825Z,100.00
2019-02-08T05:15:26.666Z,100.00
2019-02-08T05:17:53.657Z,100.00
2019-02-08T05:20:22.085Z,100.00
2019-02-08T05:22:48.945Z,100.00
2019-02-08T05:25:15.809Z,100.00
2019-02-08T05:27:42.653Z,100.00
2019-02-08T05:30:13.015Z,100.00
2019-02-08T05:32:39.869Z,100.00
2019-02-08T05:35:07.079Z,100.00
2019-02-08T05:37:33.937Z,100.00
2019-02-08T05:40:00.766Z,100.00
2019-02-08T05:42:27.647Z,100.00
2019-02-08T05:44:54.484Z,100.00
2019-02-08T05:47:21.353Z,100.00
2019-02-08T05:49:48.188Z,100.00
2019-02-08T05:52:15.059Z,100.00
2019-02-08T05:54:41.937Z,100.00
2019-02-08T05:57:08.811Z,100.00
2019-02-08T05:59:35.691Z,100.00
2019-02-08T06:02:02.537Z,100.00
2019-02-08T06:04:29.391Z,100.00
2019-02-08T06:06:56.219Z,100.00
2019-02-08T06:09:23.119Z,100.00
2019-02-08T06:11:49.955Z,100.00
2019-02-08T06:14:16.974Z,100.00
2019-02-08T06:16:43.803Z,100.00
2019-02-08T06:19:10.663Z,100.00
2019-02-08T06:21:37.554Z,100.00
2019-02-08T06:24:04.406Z,100.00
2019-02-08T06:26:31.250Z,100.00
2019-02-08T06:28:58.110Z,100.00
2019-02-08T06:31:24.943Z,100.00
2019-02-08T06:33:51.789Z,100.00
2019-02-08T06:36:18.637Z,100.00
2019-02-08T06:38:45.529Z,100.00
2019-02-08T06:41:12.380Z,99.78
2019-02-08T06:43:39.240Z,99.62
2019-02-08T06:46:06.102Z,99.35
2019-02-08T06:48:32.930Z,99.43
2019-02-08T06:50:59.788Z,98.97
2019-02-08T06:53:26.622Z,98.41
2019-02-08T06:55:54.060Z,98.54
2019-02-08T06:58:26.642Z,98.63
2019-02-08T07:01:15.282Z,98.43
2019-02-08T07:03:53.333Z,98.04
2019-02-08T07:06:40.559Z,97.31
2019-02-08T07:09:18.584Z,96.78
2019-02-08T07:11:51.150Z,96.24
2019-02-08T07:14:26.544Z,96.54
2019-02-08T07:17:05.078Z,95.95
2019-02-08T07:19:41.423Z,94.90
2019-02-08T07:22:16.390Z,95.19
2019-02-08T07:24:51.736Z,93.71
2019-02-08T07:27:29.737Z,93.66
2019-02-08T07:30:04.178Z,93.39
2019-02-08T07:32:36.826Z,93.28
2019-02-08T07:35:12.670Z,93.53
2019-02-08T07:38:05.102Z,93.44
2019-02-08T07:40:45.545Z,93.70
2019-02-08T07:43:30.286Z,93.48
2019-02-08T07:46:06.471Z,93.74
2019-02-08T07:48:45.875Z,93.77
2019-02-08T07:51:21.466Z,93.59
2019-02-08T07:54:09.797Z,94.17
2019-02-08T07:56:58.081Z,93.61
2019-02-08T07:59:33.165Z,93.49
2019-02-08T08:02:06.742Z,92.99
2019-02-08T08:04:41.834Z,93.32
2019-02-08T08:07:33.149Z,93.58
2019-02-08T08:10:12.666Z,93.35
2019-02-08T08:12:52.857Z,94.04
2019-02-08T08:15:40.229Z,94.46
2019-02-08T08:18:20.064Z,94.67
2019-02-08T08:21:03.269Z,94.87
2019-02-08T08:23:39.394Z,95.24
2019-02-08T08:26:14.077Z,94.82
2019-02-08T08:28:46.625Z,94.90
2019-02-08T08:31:18.313Z,94.35
2019-02-08T08:33:50.013Z,92.88
2019-02-08T08:36:23.846Z,92.85
2019-02-08T08:39:22.034Z,93.01
2019-02-08T08:42:01.066Z,92.26
2019-02-08T08:44:59.163Z,91.71
2019-02-08T08:47:39.266Z,91.00
2019-02-08T08:50:43.349Z,90.34
2019-02-08T08:53:40.762Z,90.96
2019-02-08T08:56:31.925Z,91.51
2019-02-08T08:59:11.917Z,91.34
2019-02-08T09:02:08.042Z,90.84
2019-02-08T09:05:05.110Z,89.06
2019-02-08T09:07:57.478Z,88.68
2019-02-08T09:10:36.805Z,89.32
2019-02-08T09:13:24.534Z,88.63
2019-02-08T09:16:09.134Z,87.63
2019-02-08T09:18:50.978Z,87.83
2019-02-08T09:21:45.661Z,88.21
2019-02-08T09:24:40.950Z,87.30
2019-02-08T09:27:23.477Z,87.06
2019-02-08T09:30:37.266Z,86.98
2019-02-08T09:33:33.302Z,87.21
2019-02-08T09:36:35.674Z,86.48
2019-02-08T09:39:14.010Z,86.69
2019-02-08T09:41:57.166Z,86.54
2019-02-08T09:44:42.298Z,86.21
2019-02-08T09:47:28.820Z,85.75
2019-02-08T09:50:09.369Z,85.83
2019-02-08T09:53:03.936Z,85.51
2019-02-08T09:55:42.319Z,85.46
2019-02-08T09:58:23.906Z,84.65
2019-02-08T10:01:33.910Z,84.25
2019-02-08T10:04:18.302Z,84.42
2019-02-08T10:07:09.542Z,84.71
2019-02-08T10:10:18.490Z,84.54
2019-02-08T10:13:10.623Z,84.85
2019-02-08T10:16:09.562Z,83.73
2019-02-08T10:19:15.261Z,84.08
2019-02-08T10:22:25.122Z,83.94
2019-02-08T10:25:10.329Z,83.45
2019-02-08T10:28:05.074Z,82.59
2019-02-08T10:31:08.594Z,81.78
2019-02-08T10:33:54.718Z,82.71
2019-02-08T10:37:06.597Z,81.56
2019-02-08T10:39:54.039Z,80.68
2019-02-08T10:42:53.333Z,79.85
2019-02-08T10:45:55.774Z,79.25
2019-02-08T10:48:41.291Z,79.67
2019-02-08T10:51:49.235Z,79.01
2019-02-08T10:54:46.089Z,80.38
2019-02-08T10:57:55.958Z,80.20
2019-02-08T11:00:50.181Z,78.44
2019-02-08T11:03:45.458Z,77.12
2019-02-08T11:06:36.158Z,76.48
2019-02-08T11:09:14.770Z,75.71
2019-02-08T11:12:11.218Z,76.68
2019-02-08T11:15:08.367Z,75.64
2019-02-08T11:18:03.190Z,75.55
2019-02-08T11:20:30.047Z,74.56
2019-02-08T11:22:56.886Z,74.53
2019-02-08T11:25:23.751Z,74.85
2019-02-08T11:27:50.583Z,75.26
2019-02-08T11:30:17.498Z,73.46
2019-02-08T11:32:44.344Z,74.58
2019-02-08T11:35:11.197Z,73.12
2019-02-08T11:37:38.041Z,72.10
2019-02-08T11:40:08.538Z,71.76
2019-02-08T11:42:35.371Z,70.62
2019-02-08T11:45:02.335Z,70.95
2019-02-08T11:47:29.207Z,68.58
2019-02-08T11:49:56.052Z,69.34
2019-02-08T11:52:22.890Z,69.51
2019-02-08T11:54:49.755Z,68.17
2019-02-08T11:57:16.581Z,69.06
2019-02-08T11:59:43.417Z,69.00
2019-02-08T12:02:10.262Z,69.65
2019-02-08T12:04:37.114Z,68.53
2019-02-08T12:07:04.088Z,69.06
2019-02-08T12:09:30.923Z,68.10
2019-02-08T12:11:57.745Z,68.42
2019-02-08T12:14:24.598Z,67.31
2019-02-08T12:16:51.441Z,68.90
2019-02-08T12:19:18.293Z,69.41
2019-02-08T12:21:45.154Z,68.49
2019-02-08T12:24:12.018Z,67.91
2019-02-08T12:26:38.846Z,67.40
2019-02-08T12:29:06.290Z,67.38
2019-02-08T12:31:33.122Z,67.48
2019-02-08T12:33:59.974Z,68.50
2019-02-08T12:36:26.864Z,68.17
2019-02-08T12:38:53.697Z,68.70
2019-02-08T12:41:20.590Z,68.05
2019-02-08T12:43:47.449Z,68.85
2019-02-08T12:46:14.298Z,68.11
2019-02-08T12:48:41.158Z,67.98
2019-02-08T12:51:07.978Z,67.93
2019-02-08T12:53:34.835Z,68.36
2019-02-08T12:56:01.641Z,67.13
2019-02-08T12:58:28.470Z,67.63
2019-02-08T13:00:55.311Z,68.20
2019-02-08T13:03:22.161Z,67.77
2019-02-08T13:05:49.002Z,67.70
2019-02-08T13:08:15.822Z,68.37
2019-02-08T13:10:42.737Z,67.35
2019-02-08T13:13:09.565Z,68.29
2019-02-08T13:15:36.406Z,69.50
2019-02-08T13:18:03.274Z,69.38
2019-02-08T13:20:30.113Z,68.67
2019-02-08T13:22:57.041Z,68.20
2019-02-08T13:25:23.889Z,68.86
2019-02-08T13:27:50.726Z,68.15
2019-02-08T13:30:20.578Z,68.69
2019-02-08T13:32:47.437Z,68.26
2019-02-08T13:35:14.318Z,68.37
2019-02-08T13:37:41.153Z,68.20
2019-02-08T13:40:09.446Z,69.27
2019-02-08T13:42:36.265Z,69.53
2019-02-08T13:45:03.496Z,69.83
2019-02-08T13:47:30.344Z,70.48
2019-02-08T13:49:57.275Z,69.45
2019-02-08T13:52:24.122Z,69.04
2019-02-08T13:54:50.988Z,69.22
2019-02-08T13:57:17.867Z,70.15
2019-02-08T13:59:44.686Z,70.12
2019-02-08T14:02:11.510Z,69.66
2019-02-08T14:04:39.462Z,71.07
2019-02-08T14:07:06.314Z,71.05
2019-02-08T14:09:33.157Z,71.10
2019-02-08T14:12:00.014Z,70.29
2019-02-08T14:14:26.884Z,70.01
2019-02-08T14:16:53.806Z,70.92
2019-02-08T14:19:20.706Z,70.51
2019-02-08T14:21:47.601Z,70.50
2019-02-08T14:24:14.458Z,69.86
2019-02-08T14:26:41.298Z,70.45
2019-02-08T14:29:08.260Z,70.37
2019-02-08T14:31:35.076Z,70.47
2019-02-08T14:34:02.059Z,70.77
2019-02-08T14:36:29.009Z,70.63
2019-02-08T14:38:55.891Z,71.11
2019-02-08T14:41:22.719Z,70.54
2019-02-08T14:43:49.583Z,70.36
2019-02-08T14:46:16.427Z,70.08
2019-02-08T14:48:43.361Z,70.51
2019-02-08T14:51:10.196Z,70.92
2019-02-08T14:53:37.089Z,71.08
2019-02-08T14:56:03.966Z,71.18
2019-02-08T14:58:30.802Z,70.90
2019-02-08T15:00:57.694Z,69.96
2019-02-08T15:03:24.525Z,70.80
2019-02-08T15:05:51.388Z,70.13
2019-02-08T15:08:18.271Z,71.49
2019-02-08T15:10:46.394Z,71.54
2019-02-08T15:13:13.366Z,69.98
2019-02-08T15:15:40.208Z,69.94
2019-02-08T15:18:07.066Z,70.50
2019-02-08T15:20:33.894Z,70.31
2019-02-08T15:23:00.769Z,69.51
2019-02-08T15:25:27.590Z,70.07
2019-02-08T15:27:54.432Z,69.59
2019-02-08T15:30:22.774Z,70.20
2019-02-08T15:32:49.690Z,70.40
2019-02-08T15:35:17.662Z,70.19
2019-02-08T15:37:44.526Z,70.04
2019-02-08T15:40:14.666Z,70.05
2019-02-08T15:42:41.602Z,70.19
2019-02-08T15:45:11.874Z,70.21
2019-02-08T15:47:38.698Z,70.20
2019-02-08T15:50:05.711Z,70.18
2019-02-08T15:52:32.560Z,70.91
2019-02-08T15:54:59.426Z,71.08
2019-02-08T15:57:31.936Z,70.05
2019-02-08T15:59:53.182Z,69.36
2019-02-08T16:02:20.006Z,71.03
2019-02-08T16:04:46.882Z,70.55
2019-02-08T16:07:14.121Z,70.64
2019-02-08T16:09:40.967Z,71.45
2019-02-08T16:12:07.815Z,71.14
2019-02-08T16:14:34.682Z,71.16
2019-02-08T16:17:01.530Z,70.37
2019-02-08T16:19:28.390Z,70.88
2019-02-08T16:21:55.221Z,70.26
2019-02-08T16:24:22.074Z,70.72
2019-02-08T16:26:48.894Z,71.68
2019-02-08T16:29:15.735Z,70.84
2019-02-08T16:31:42.574Z,71.48
2019-02-08T16:34:09.444Z,71.38
2019-02-08T16:36:36.282Z,71.21
2019-02-08T16:39:06.599Z,72.24
2019-02-08T16:41:33.435Z,71.27
2019-02-08T16:44:00.367Z,71.02
2019-02-08T16:46:27.307Z,70.87
2019-02-08T16:48:54.158Z,69.27
2019-02-08T16:51:21.001Z,72.04
2019-02-08T16:53:53.305Z,71.83
2019-02-08T16:56:14.702Z,69.76
2019-02-08T16:58:41.531Z,70.60
2019-02-08T17:01:08.457Z,71.63
2019-02-08T17:03:35.295Z,72.52
2019-02-08T17:06:02.240Z,73.38
2019-02-08T17:08:29.100Z,73.55
2019-02-08T17:10:55.949Z,73.36
2019-02-08T17:13:22.773Z,73.01
2019-02-08T17:15:49.646Z,73.76
2019-02-08T17:18:16.487Z,73.89
2019-02-08T17:20:44.582Z,72.35
2019-02-08T17:23:11.414Z,71.65
2019-02-08T17:25:38.283Z,72.67
2019-02-08T17:28:05.749Z,73.84
2019-02-08T17:30:32.610Z,74.13
2019-02-08T17:32:59.442Z,74.96
2019-02-08T17:35:26.406Z,74.77
2019-02-08T17:37:53.237Z,74.98
2019-02-08T17:40:21.917Z,73.97
2019-02-08T17:42:48.755Z,74.54
2019-02-08T17:45:16.642Z,74.05
2019-02-08T17:47:43.461Z,73.49
2019-02-08T17:50:12.275Z,74.57
2019-02-08T17:52:39.099Z,74.62
2019-02-08T17:55:06.958Z,74.09
2019-02-08T17:57:33.814Z,74.16
2019-02-08T18:00:00.664Z,74.92
2019-02-08T18:02:27.489Z,75.72
2019-02-08T18:04:54.343Z,76.59
2019-02-08T18:07:21.195Z,75.73
2019-02-08T18:09:48.071Z,76.73
2019-02-08T18:12:14.910Z,75.63
2019-02-08T18:14:41.758Z,76.69
2019-02-08T18:17:10.698Z,77.06
2019-02-08T18:19:37.001Z,76.79
2019-02-08T18:22:03.687Z,77.51
2019-02-08T18:24:30.534Z,77.48
2019-02-08T18:26:57.410Z,76.09
2019-02-08T18:29:24.246Z,77.23
2019-02-08T18:31:51.114Z,77.48
2019-02-08T18:34:17.974Z,78.02
2019-02-08T18:36:44.829Z,77.72
2019-02-08T18:39:11.731Z,77.04
2019-02-08T18:41:38.592Z,77.87
2019-02-08T18:44:05.430Z,77.12
2019-02-08T18:46:32.287Z,77.98
2019-02-08T18:48:59.142Z,78.49
2019-02-08T18:51:26.015Z,77.16
2019-02-08T18:53:52.846Z,77.78
2019-02-08T18:56:19.702Z,76.51
2019-02-08T18:58:46.551Z,76.38
2019-02-08T19:01:13.411Z,75.14
2019-02-08T19:03:40.253Z,75.43
2019-02-08T19:06:07.126Z,74.28
2019-02-08T19:08:33.965Z,75.32
2019-02-08T19:11:00.822Z,75.27
2019-02-08T19:13:27.669Z,75.44
2019-02-08T19:15:54.538Z,75.79
2019-02-08T19:18:21.390Z,76.36
2019-02-08T19:20:48.342Z,76.69
2019-02-08T19:23:15.181Z,75.60
2019-02-08T19:25:42.318Z,73.67
2019-02-08T19:28:10.729Z,73.57
2019-02-08T19:30:38.132Z,75.00
2019-02-08T19:33:05.390Z,75.74
2019-02-08T19:35:32.230Z,76.57
2019-02-08T19:37:59.152Z,77.18
2019-02-08T19:40:28.233Z,76.92
2019-02-08T19:42:55.272Z,76.98
2019-02-08T19:45:22.206Z,75.89
2019-02-08T19:47:49.478Z,76.27
2019-02-08T19:50:21.496Z,76.58
2019-02-08T19:52:48.580Z,76.81
2019-02-08T19:55:15.518Z,77.45
2019-02-08T19:57:42.646Z,78.08
2019-02-08T20:00:12.178Z,77.74
2019-02-08T20:02:39.151Z,77.69
2019-02-08T20:05:10.270Z,75.75
2019-02-08T20:07:37.388Z,76.73
2019-02-08T20:10:06.766Z,77.42
2019-02-08T20:12:33.770Z,77.28
2019-02-08T20:15:00.834Z,78.23
2019-02-08T20:17:27.713Z,78.07
2019-02-08T20:19:54.767Z,77.20
2019-02-08T20:22:21.815Z,76.55
2019-02-08T20:24:48.870Z,77.65
2019-02-08T20:27:15.933Z,78.16
2019-02-08T20:29:42.854Z,77.37
2019-02-08T20:32:09.873Z,77.38
2019-02-08T20:34:36.906Z,77.15
2019-02-08T20:37:04.132Z,77.66
2019-02-08T20:39:31.017Z,77.51
2019-02-08T20:41:58.045Z,76.87
2019-02-08T20:44:25.068Z,77.78
2019-02-08T20:46:52.204Z,77.73
2019-02-08T20:49:19.115Z,77.95
2019-02-08T20:51:46.275Z,78.04
2019-02-08T20:54:13.342Z,77.56
2019-02-08T20:56:40.296Z,77.99
2019-02-08T20:59:07.251Z,78.05
2019-02-08T21:01:34.074Z,75.88
2019-02-08T21:04:01.249Z,76.91
2019-02-08T21:06:28.110Z,77.03
2019-02-08T21:08:54.991Z,78.17
2019-02-08T21:11:22.134Z,77.50
2019-02-08T21:13:49.044Z,78.12
2019-02-08T21:16:15.940Z,77.34
2019-02-08T21:18:42.818Z,78.72
2019-02-08T21:21:09.761Z,78.70
2019-02-08T21:23:36.651Z,79.12
2019-02-08T21:26:03.562Z,79.88
2019-02-08T21:28:30.445Z,78.51
2019-02-08T21:30:57.273Z,77.52
2019-02-08T21:33:24.224Z,77.92
2019-02-08T21:35:51.055Z,77.46
2019-02-08T21:38:17.930Z,78.31
2019-02-08T21:40:44.776Z,78.87
2019-02-08T21:43:11.642Z,78.14
2019-02-08T21:45:39.969Z,79.81
2019-02-08T21:48:07.962Z,79.59
2019-02-08T21:50:34.782Z,79.25
2019-02-08T21:53:01.642Z,78.58
2019-02-08T21:55:28.544Z,80.02
2019-02-08T21:57:55.507Z,80.02
2019-02-08T22:00:25.019Z,80.14
2019-02-08T22:02:51.873Z,81.20
2019-02-08T22:05:25.266Z,79.57
2019-02-08T22:07:52.118Z,80.65
2019-02-08T22:10:18.954Z,81.15
2019-02-08T22:12:45.825Z,80.94
2019-02-08T22:15:15.552Z,80.77
2019-02-08T22:17:42.424Z,80.36
2019-02-08T22:20:12.466Z,80.00
2019-02-08T22:22:39.314Z,79.87
2019-02-08T22:25:06.755Z,79.61
2019-02-08T22:27:33.610Z,78.40
2019-02-08T22:30:00.439Z,78.29
2019-02-08T22:32:27.296Z,78.65
2019-02-08T22:34:54.134Z,79.50
2019-02-08T22:37:21.013Z,79.45
2019-02-08T22:39:47.877Z,79.89
2019-02-08T22:42:14.818Z,79.67
2019-02-08T22:44:41.686Z,79.37
2019-02-08T22:47:08.528Z,78.96
2019-02-08T22:49:35.405Z,78.50
2019-02-08T22:52:02.241Z,78.75
2019-02-08T22:54:29.098Z,78.28
2019-02-08T22:56:55.937Z,77.60
2019-02-08T22:59:23.786Z,77.34
2019-02-08T23:01:50.618Z,76.77
2019-02-08T23:04:17.474Z,75.77
2019-02-08T23:06:45.206Z,75.26
2019-02-08T23:09:18.657Z,75.89
2019-02-08T23:11:45.506Z,74.67
2019-02-08T23:14:12.358Z,74.42
2019-02-08T23:16:39.197Z,74.47
2019-02-08T23:19:06.062Z,73.41
2019-02-08T23:21:32.913Z,73.79
2019-02-08T23:23:59.858Z,73.47
2019-02-08T23:26:26.709Z,72.98
2019-02-08T23:28:53.574Z,72.91
2019-02-08T23:31:20.416Z,72.42
2019-02-08T23:33:47.271Z,71.98
2019-02-08T23:36:14.121Z,72.31
2019-02-08T23:38:40.970Z,71.16
2019-02-08T23:41:07.818Z,72.10
2019-02-08T23:43:34.674Z,71.82
2019-02-08T23:46:01.760Z,71.14
2019-02-08T23:48:28.618Z,71.45
2019-02-08T23:50:55.466Z,70.95
2019-02-08T23:53:22.296Z,71.27
2019-02-08T23:55:49.165Z,70.42
2019-02-08T23:58:16.022Z,71.10
